sensor_id;sensor_type;location;lat;lon;timestamp;pressure;altitude;pressure_sealevel;temperature;humidity
58919;BME280;44704;50.122;19.932;2022-10-12T00:02:05;99400.86;;;4.89;88.44
58919;BME280;44704;50.122;19.932;2022-10-12T00:04:31;99403.88;;;4.89;88.39
58919;BME280;44704;50.122;19.932;2022-10-12T00:06:58;99404.05;;;4.90;88.57
58919;BME280;44704;50.122;19.932;2022-10-12T00:09:25;99400.94;;;4.89;88.43
58919;BME280;44704;50.122;19.932;2022-10-12T00:11:52;99404.16;;;4.88;88.67
58919;BME280;44704;50.122;19.932;2022-10-12T00:14:18;99400.02;;;4.89;88.65
58919;BME280;44704;50.122;19.932;2022-10-12T00:16:45;99399.44;;;4.89;88.75
58919;BME280;44704;50.122;19.932;2022-10-12T00:19:12;99401.27;;;4.89;88.81
58919;BME280;44704;50.122;19.932;2022-10-12T00:21:39;99399.69;;;4.88;88.80
58919;BME280;44704;50.122;19.932;2022-10-12T00:24:08;99404.89;;;4.87;88.81
58919;BME280;44704;50.122;19.932;2022-10-12T00:26:35;99409.12;;;4.86;88.83
58919;BME280;44704;50.122;19.932;2022-10-12T00:29:02;99407.72;;;4.85;88.39
58919;BME280;44704;50.122;19.932;2022-10-12T00:31:31;99410.27;;;4.83;88.13
58919;BME280;44704;50.122;19.932;2022-10-12T00:33:59;99407.27;;;4.76;87.02
58919;BME280;44704;50.122;19.932;2022-10-12T00:36:32;99408.98;;;4.63;86.31
58919;BME280;44704;50.122;19.932;2022-10-12T00:39:03;99408.98;;;4.48;86.15
58919;BME280;44704;50.122;19.932;2022-10-12T00:41:34;99408.45;;;4.37;86.27
58919;BME280;44704;50.122;19.932;2022-10-12T00:44:01;99409.70;;;4.30;86.46
58919;BME280;44704;50.122;19.932;2022-10-12T00:49:21;99411.15;;;4.21;87.01
58919;BME280;44704;50.122;19.932;2022-10-12T00:51:56;99415.26;;;4.18;87.34
58919;BME280;44704;50.122;19.932;2022-10-12T00:54:30;99410.94;;;4.15;87.49
58919;BME280;44704;50.122;19.932;2022-10-12T00:57:00;99407.74;;;4.13;87.67
58919;BME280;44704;50.122;19.932;2022-10-12T00:59:35;99405.95;;;4.13;88.05
58919;BME280;44704;50.122;19.932;2022-10-12T01:02:04;99407.60;;;4.12;88.26
58919;BME280;44704;50.122;19.932;2022-10-12T01:04:31;99407.30;;;4.13;88.63
58919;BME280;44704;50.122;19.932;2022-10-12T01:06:59;99406.28;;;4.15;88.73
58919;BME280;44704;50.122;19.932;2022-10-12T01:09:27;99407.21;;;4.16;88.85
58919;BME280;44704;50.122;19.932;2022-10-12T01:11:56;99405.80;;;4.15;88.71
58919;BME280;44704;50.122;19.932;2022-10-12T01:14:24;99409.18;;;4.14;88.86
58919;BME280;44704;50.122;19.932;2022-10-12T01:17:09;99404.98;;;4.13;88.99
58919;BME280;44704;50.122;19.932;2022-10-12T01:22:21;99399.85;;;4.14;89.65
58919;BME280;44704;50.122;19.932;2022-10-12T01:33:16;99392.31;;;4.22;89.80
58919;BME280;44704;50.122;19.932;2022-10-12T01:38:55;99395.73;;;4.22;89.09
58919;BME280;44704;50.122;19.932;2022-10-12T01:41:33;99396.66;;;4.22;89.11
58919;BME280;44704;50.122;19.932;2022-10-12T01:44:02;99392.82;;;4.21;88.97
58919;BME280;44704;50.122;19.932;2022-10-12T01:48:58;99402.02;;;4.13;88.17
58919;BME280;44704;50.122;19.932;2022-10-12T01:51:38;99400.23;;;4.05;88.21
58919;BME280;44704;50.122;19.932;2022-10-12T02:02:15;99401.98;;;3.94;89.53
58919;BME280;44704;50.122;19.932;2022-10-12T02:04:48;99401.00;;;3.95;89.70
58919;BME280;44704;50.122;19.932;2022-10-12T02:10:04;99402.68;;;3.94;89.92
58919;BME280;44704;50.122;19.932;2022-10-12T02:12:33;99402.27;;;3.95;90.16
58919;BME280;44704;50.122;19.932;2022-10-12T02:15:03;99405.20;;;3.96;90.24
58919;BME280;44704;50.122;19.932;2022-10-12T02:17:33;99408.55;;;3.98;90.21
58919;BME280;44704;50.122;19.932;2022-10-12T02:20:02;99404.71;;;3.99;90.02
58919;BME280;44704;50.122;19.932;2022-10-12T02:22:35;99406.78;;;3.98;89.66
58919;BME280;44704;50.122;19.932;2022-10-12T02:25:05;99408.20;;;3.95;89.72
58919;BME280;44704;50.122;19.932;2022-10-12T02:27:37;99411.41;;;3.95;90.13
58919;BME280;44704;50.122;19.932;2022-10-12T02:30:06;99411.83;;;3.96;90.01
58919;BME280;44704;50.122;19.932;2022-10-12T02:32:41;99408.72;;;3.94;89.78
58919;BME280;44704;50.122;19.932;2022-10-12T02:38:33;99407.36;;;3.90;89.72
58919;BME280;44704;50.122;19.932;2022-10-12T02:41:08;99402.64;;;3.86;89.72
58919;BME280;44704;50.122;19.932;2022-10-12T02:43:51;99404.67;;;3.84;89.93
58919;BME280;44704;50.122;19.932;2022-10-12T02:46:22;99406.67;;;3.82;89.79
58919;BME280;44704;50.122;19.932;2022-10-12T02:48:52;99406.41;;;3.81;90.15
58919;BME280;44704;50.122;19.932;2022-10-12T02:51:21;99407.45;;;3.81;90.31
58919;BME280;44704;50.122;19.932;2022-10-12T02:53:49;99407.95;;;3.78;89.96
58919;BME280;44704;50.122;19.932;2022-10-12T02:56:16;99407.79;;;3.77;90.17
58919;BME280;44704;50.122;19.932;2022-10-12T02:58:44;99408.23;;;3.76;90.25
58919;BME280;44704;50.122;19.932;2022-10-12T03:01:12;99409.62;;;3.75;90.12
58919;BME280;44704;50.122;19.932;2022-10-12T03:03:43;99407.52;;;3.74;90.38
58919;BME280;44704;50.122;19.932;2022-10-12T03:06:10;99408.77;;;3.75;90.48
58919;BME280;44704;50.122;19.932;2022-10-12T03:08:37;99411.30;;;3.74;90.33
58919;BME280;44704;50.122;19.932;2022-10-12T03:11:06;99411.95;;;3.73;90.19
58919;BME280;44704;50.122;19.932;2022-10-12T03:13:33;99409.44;;;3.69;89.94
58919;BME280;44704;50.122;19.932;2022-10-12T03:16:07;99407.31;;;3.66;89.87
58919;BME280;44704;50.122;19.932;2022-10-12T03:18:35;99408.60;;;3.64;89.87
58919;BME280;44704;50.122;19.932;2022-10-12T03:21:03;99410.14;;;3.63;89.95
58919;BME280;44704;50.122;19.932;2022-10-12T03:23:30;99408.27;;;3.62;90.24
58919;BME280;44704;50.122;19.932;2022-10-12T03:25:56;99408.52;;;3.59;90.06
58919;BME280;44704;50.122;19.932;2022-10-12T03:28:23;99411.86;;;3.55;89.94
58919;BME280;44704;50.122;19.932;2022-10-12T03:30:50;99415.72;;;3.53;90.22
58919;BME280;44704;50.122;19.932;2022-10-12T03:33:17;99419.09;;;3.53;90.35
58919;BME280;44704;50.122;19.932;2022-10-12T03:35:44;99419.14;;;3.53;90.17
58919;BME280;44704;50.122;19.932;2022-10-12T03:38:12;99420.07;;;3.51;89.87
58919;BME280;44704;50.122;19.932;2022-10-12T03:40:39;99416.73;;;3.44;89.44
58919;BME280;44704;50.122;19.932;2022-10-12T03:43:06;99417.13;;;3.37;89.47
58919;BME280;44704;50.122;19.932;2022-10-12T03:45:34;99417.73;;;3.34;89.92
58919;BME280;44704;50.122;19.932;2022-10-12T03:48:02;99416.61;;;3.33;89.84
58919;BME280;44704;50.122;19.932;2022-10-12T03:50:29;99418.27;;;3.32;89.93
58919;BME280;44704;50.122;19.932;2022-10-12T03:52:55;99417.13;;;3.31;90.23
58919;BME280;44704;50.122;19.932;2022-10-12T03:55:22;99419.35;;;3.31;90.34
58919;BME280;44704;50.122;19.932;2022-10-12T03:57:49;99419.58;;;3.32;90.45
58919;BME280;44704;50.122;19.932;2022-10-12T04:00:16;99420.65;;;3.33;90.66
58919;BME280;44704;50.122;19.932;2022-10-12T04:02:43;99418.73;;;3.33;90.29
58919;BME280;44704;50.122;19.932;2022-10-12T04:05:10;99422.56;;;3.32;90.41
58919;BME280;44704;50.122;19.932;2022-10-12T04:07:37;99419.50;;;3.32;90.35
58919;BME280;44704;50.122;19.932;2022-10-12T04:10:05;99417.98;;;3.32;90.44
58919;BME280;44704;50.122;19.932;2022-10-12T04:12:32;99420.57;;;3.31;90.44
58919;BME280;44704;50.122;19.932;2022-10-12T04:14:59;99417.84;;;3.30;90.58
58919;BME280;44704;50.122;19.932;2022-10-12T04:17:25;99418.05;;;3.28;90.60
58919;BME280;44704;50.122;19.932;2022-10-12T04:19:52;99423.98;;;3.28;90.97
58919;BME280;44704;50.122;19.932;2022-10-12T04:22:19;99420.87;;;3.28;90.86
58919;BME280;44704;50.122;19.932;2022-10-12T04:24:46;99425.05;;;3.28;91.03
58919;BME280;44704;50.122;19.932;2022-10-12T04:27:13;99428.27;;;3.29;90.93
58919;BME280;44704;50.122;19.932;2022-10-12T04:29:40;99428.51;;;3.31;90.71
58919;BME280;44704;50.122;19.932;2022-10-12T04:32:07;99429.86;;;3.28;90.06
58919;BME280;44704;50.122;19.932;2022-10-12T04:34:34;99431.13;;;3.23;89.64
58919;BME280;44704;50.122;19.932;2022-10-12T04:37:02;99433.41;;;3.20;89.81
58919;BME280;44704;50.122;19.932;2022-10-12T04:39:29;99434.05;;;3.18;89.58
58919;BME280;44704;50.122;19.932;2022-10-12T04:41:56;99438.44;;;3.16;89.47
58919;BME280;44704;50.122;19.932;2022-10-12T04:44:23;99441.52;;;3.14;89.44
58919;BME280;44704;50.122;19.932;2022-10-12T04:46:49;99440.91;;;3.13;89.54
58919;BME280;44704;50.122;19.932;2022-10-12T04:49:16;99439.67;;;3.11;89.47
58919;BME280;44704;50.122;19.932;2022-10-12T04:51:43;99437.41;;;3.10;89.32
58919;BME280;44704;50.122;19.932;2022-10-12T04:54:10;99436.77;;;3.09;89.25
58919;BME280;44704;50.122;19.932;2022-10-12T04:56:37;99434.57;;;3.05;89.32
58919;BME280;44704;50.122;19.932;2022-10-12T04:59:04;99436.77;;;3.02;89.25
58919;BME280;44704;50.122;19.932;2022-10-12T05:01:30;99436.82;;;3.00;89.16
58919;BME280;44704;50.122;19.932;2022-10-12T05:03:57;99434.96;;;2.99;89.32
58919;BME280;44704;50.122;19.932;2022-10-12T05:06:25;99439.77;;;2.97;89.59
58919;BME280;44704;50.122;19.932;2022-10-12T05:08:52;99439.92;;;2.96;89.45
58919;BME280;44704;50.122;19.932;2022-10-12T05:11:19;99443.94;;;2.97;89.68
58919;BME280;44704;50.122;19.932;2022-10-12T05:13:46;99446.77;;;2.97;89.84
58919;BME280;44704;50.122;19.932;2022-10-12T05:16:13;99445.33;;;2.97;89.64
58919;BME280;44704;50.122;19.932;2022-10-12T05:18:40;99445.61;;;2.98;89.41
58919;BME280;44704;50.122;19.932;2022-10-12T05:21:07;99449.96;;;2.99;89.75
58919;BME280;44704;50.122;19.932;2022-10-12T05:23:34;99452.59;;;3.00;89.56
58919;BME280;44704;50.122;19.932;2022-10-12T05:26:00;99456.52;;;3.00;89.61
58919;BME280;44704;50.122;19.932;2022-10-12T05:28:27;99457.59;;;3.02;89.67
58919;BME280;44704;50.122;19.932;2022-10-12T05:30:54;99458.66;;;3.03;89.76
58919;BME280;44704;50.122;19.932;2022-10-12T05:33:21;99459.53;;;3.05;89.78
58919;BME280;44704;50.122;19.932;2022-10-12T05:35:48;99461.75;;;3.08;90.19
58919;BME280;44704;50.122;19.932;2022-10-12T05:38:14;99452.72;;;3.10;90.11
58919;BME280;44704;50.122;19.932;2022-10-12T05:40:42;99459.34;;;3.13;90.02
58919;BME280;44704;50.122;19.932;2022-10-12T05:43:09;99454.67;;;3.15;89.97
58919;BME280;44704;50.122;19.932;2022-10-12T05:45:36;99455.77;;;3.18;90.21
58919;BME280;44704;50.122;19.932;2022-10-12T05:48:03;99459.69;;;3.23;90.14
58919;BME280;44704;50.122;19.932;2022-10-12T05:50:29;99457.30;;;3.27;90.31
58919;BME280;44704;50.122;19.932;2022-10-12T05:52:56;99454.58;;;3.26;89.69
58919;BME280;44704;50.122;19.932;2022-10-12T05:55:23;99454.52;;;3.19;89.05
58919;BME280;44704;50.122;19.932;2022-10-12T05:57:50;99453.07;;;3.10;88.88
58919;BME280;44704;50.122;19.932;2022-10-12T06:00:17;99454.72;;;3.05;89.28
58919;BME280;44704;50.122;19.932;2022-10-12T06:02:44;99456.30;;;3.07;89.86
58919;BME280;44704;50.122;19.932;2022-10-12T06:05:11;99464.27;;;3.08;89.88
58919;BME280;44704;50.122;19.932;2022-10-12T06:07:38;99464.45;;;3.27;93.20
58919;BME280;44704;50.122;19.932;2022-10-12T06:10:05;99465.30;;;3.46;91.68
58919;BME280;44704;50.122;19.932;2022-10-12T06:12:33;99467.86;;;3.54;90.38
58919;BME280;44704;50.122;19.932;2022-10-12T06:14:59;99464.61;;;3.59;90.18
58919;BME280;44704;50.122;19.932;2022-10-12T06:17:26;99462.72;;;3.66;90.53
58919;BME280;44704;50.122;19.932;2022-10-12T06:19:53;99461.02;;;3.76;90.84
58919;BME280;44704;50.122;19.932;2022-10-12T06:22:20;99454.32;;;3.95;91.77
58919;BME280;44704;50.122;19.932;2022-10-12T06:24:47;99454.05;;;4.10;91.27
58919;BME280;44704;50.122;19.932;2022-10-12T06:27:14;99461.52;;;4.23;91.08
58919;BME280;44704;50.122;19.932;2022-10-12T06:29:43;99462.35;;;4.34;90.96
58919;BME280;44704;50.122;19.932;2022-10-12T06:32:09;99465.16;;;4.46;91.14
58919;BME280;44704;50.122;19.932;2022-10-12T06:34:36;99463.43;;;4.56;90.64
58919;BME280;44704;50.122;19.932;2022-10-12T06:37:03;99465.72;;;4.64;90.58
58919;BME280;44704;50.122;19.932;2022-10-12T06:39:30;99461.64;;;4.73;90.68
58919;BME280;44704;50.122;19.932;2022-10-12T06:41:57;99466.39;;;4.82;90.64
58919;BME280;44704;50.122;19.932;2022-10-12T06:44:28;99462.73;;;4.89;90.46
58919;BME280;44704;50.122;19.932;2022-10-12T06:46:56;99466.88;;;4.94;89.81
58919;BME280;44704;50.122;19.932;2022-10-12T06:49:23;99470.33;;;5.00;89.91
58919;BME280;44704;50.122;19.932;2022-10-12T06:51:51;99468.94;;;5.07;89.83
58919;BME280;44704;50.122;19.932;2022-10-12T06:54:18;99471.85;;;5.15;89.95
58919;BME280;44704;50.122;19.932;2022-10-12T06:56:45;99474.81;;;5.25;89.81
58919;BME280;44704;50.122;19.932;2022-10-12T06:59:12;99470.50;;;5.34;89.83
58919;BME280;44704;50.122;19.932;2022-10-12T07:01:39;99472.64;;;5.45;89.80
58919;BME280;44704;50.122;19.932;2022-10-12T07:04:06;99470.52;;;5.56;89.63
58919;BME280;44704;50.122;19.932;2022-10-12T07:06:33;99469.67;;;5.69;89.72
58919;BME280;44704;50.122;19.932;2022-10-12T07:09:00;99475.03;;;5.74;88.99
58919;BME280;44704;50.122;19.932;2022-10-12T07:11:27;99475.33;;;5.79;88.83
58919;BME280;44704;50.122;19.932;2022-10-12T07:13:56;99476.28;;;5.86;89.07
58919;BME280;44704;50.122;19.932;2022-10-12T07:16:23;99476.55;;;5.96;89.04
58919;BME280;44704;50.122;19.932;2022-10-12T07:18:50;99479.14;;;6.07;89.24
58919;BME280;44704;50.122;19.932;2022-10-12T07:21:17;99473.77;;;6.17;88.97
58919;BME280;44704;50.122;19.932;2022-10-12T07:23:44;99472.48;;;6.25;89.00
58919;BME280;44704;50.122;19.932;2022-10-12T07:26:10;99473.33;;;6.35;89.02
58919;BME280;44704;50.122;19.932;2022-10-12T07:28:37;99476.73;;;6.43;89.11
58919;BME280;44704;50.122;19.932;2022-10-12T07:31:06;99472.75;;;6.53;89.02
58919;BME280;44704;50.122;19.932;2022-10-12T07:33:34;99472.21;;;6.61;88.70
58919;BME280;44704;50.122;19.932;2022-10-12T07:36:02;99467.58;;;6.69;88.69
58919;BME280;44704;50.122;19.932;2022-10-12T07:38:29;99470.21;;;6.75;88.45
58919;BME280;44704;50.122;19.932;2022-10-12T07:40:59;99462.02;;;6.82;88.46
58919;BME280;44704;50.122;19.932;2022-10-12T07:43:27;99463.20;;;6.89;88.26
58919;BME280;44704;50.122;19.932;2022-10-12T07:45:54;99460.70;;;6.99;88.59
58919;BME280;44704;50.122;19.932;2022-10-12T07:48:22;99466.08;;;7.12;88.18
58919;BME280;44704;50.122;19.932;2022-10-12T07:50:49;99462.23;;;7.22;87.88
58919;BME280;44704;50.122;19.932;2022-10-12T07:53:16;99465.08;;;7.32;87.76
58919;BME280;44704;50.122;19.932;2022-10-12T07:55:43;99460.46;;;7.40;87.78
58919;BME280;44704;50.122;19.932;2022-10-12T07:58:09;99462.27;;;7.50;88.03
58919;BME280;44704;50.122;19.932;2022-10-12T08:00:38;99462.14;;;7.57;87.80
58919;BME280;44704;50.122;19.932;2022-10-12T08:03:05;99460.98;;;7.65;87.88
58919;BME280;44704;50.122;19.932;2022-10-12T08:05:33;99459.80;;;7.74;87.46
58919;BME280;44704;50.122;19.932;2022-10-12T08:07:59;99457.80;;;7.83;87.35
58919;BME280;44704;50.122;19.932;2022-10-12T08:10:27;99459.01;;;7.92;87.52
58919;BME280;44704;50.122;19.932;2022-10-12T08:12:54;99458.66;;;8.02;87.40
58919;BME280;44704;50.122;19.932;2022-10-12T08:15:20;99448.21;;;8.13;87.40
58919;BME280;44704;50.122;19.932;2022-10-12T08:17:48;99450.41;;;8.25;87.63
58919;BME280;44704;50.122;19.932;2022-10-12T08:20:15;99453.20;;;8.38;87.50
58919;BME280;44704;50.122;19.932;2022-10-12T08:22:42;99453.16;;;8.52;87.52
58919;BME280;44704;50.122;19.932;2022-10-12T08:25:08;99454.80;;;8.64;87.00
58919;BME280;44704;50.122;19.932;2022-10-12T08:27:35;99456.20;;;8.74;86.52
58919;BME280;44704;50.122;19.932;2022-10-12T08:30:05;99447.50;;;8.83;85.95
58919;BME280;44704;50.122;19.932;2022-10-12T08:32:32;99447.20;;;8.92;85.62
58919;BME280;44704;50.122;19.932;2022-10-12T08:34:59;99445.86;;;9.02;85.27
58919;BME280;44704;50.122;19.932;2022-10-12T08:37:26;99443.96;;;9.13;85.17
58919;BME280;44704;50.122;19.932;2022-10-12T08:39:52;99443.02;;;9.25;84.95
58919;BME280;44704;50.122;19.932;2022-10-12T08:42:45;99442.40;;;9.40;84.99
58919;BME280;44704;50.122;19.932;2022-10-12T08:48:41;99446.33;;;9.70;83.48
58919;BME280;44704;50.122;19.932;2022-10-12T08:51:19;99446.45;;;9.81;83.13
58919;BME280;44704;50.122;19.932;2022-10-12T08:54:09;99444.23;;;9.89;82.52
58919;BME280;44704;50.122;19.932;2022-10-12T08:56:38;99446.45;;;9.99;81.83
58919;BME280;44704;50.122;19.932;2022-10-12T08:59:12;99450.98;;;10.06;81.40
58919;BME280;44704;50.122;19.932;2022-10-12T09:04:40;99450.64;;;10.22;80.56
58919;BME280;44704;50.122;19.932;2022-10-12T09:07:22;99450.52;;;10.35;80.11
58919;BME280;44704;50.122;19.932;2022-10-12T09:13:03;99454.52;;;10.58;79.13
58919;BME280;44704;50.122;19.932;2022-10-12T09:15:37;99455.11;;;10.68;78.33
58919;BME280;44704;50.122;19.932;2022-10-12T09:18:17;99448.30;;;10.76;77.66
58919;BME280;44704;50.122;19.932;2022-10-12T09:20:48;99447.98;;;10.83;77.15
58919;BME280;44704;50.122;19.932;2022-10-12T09:23:49;99443.13;;;10.88;76.86
58919;BME280;44704;50.122;19.932;2022-10-12T09:26:20;99444.61;;;10.98;76.62
58919;BME280;44704;50.122;19.932;2022-10-12T09:28:56;99445.84;;;11.09;76.80
58919;BME280;44704;50.122;19.932;2022-10-12T09:34:14;99443.20;;;11.30;75.24
58919;BME280;44704;50.122;19.932;2022-10-12T09:36:41;99442.51;;;11.41;75.38
58919;BME280;44704;50.122;19.932;2022-10-12T09:39:18;99440.05;;;11.54;74.73
58919;BME280;44704;50.122;19.932;2022-10-12T09:41:47;99440.42;;;11.66;73.60
58919;BME280;44704;50.122;19.932;2022-10-12T09:46:50;99444.20;;;11.86;72.32
58919;BME280;44704;50.122;19.932;2022-10-12T09:49:20;99440.64;;;11.95;71.80
58919;BME280;44704;50.122;19.932;2022-10-12T09:51:57;99441.45;;;12.04;71.65
58919;BME280;44704;50.122;19.932;2022-10-12T09:54:26;99443.02;;;12.15;71.19
58919;BME280;44704;50.122;19.932;2022-10-12T09:56:53;99443.43;;;12.22;70.83
58919;BME280;44704;50.122;19.932;2022-10-12T09:59:27;99444.60;;;12.29;70.48
58919;BME280;44704;50.122;19.932;2022-10-12T10:02:18;99438.84;;;12.38;70.27
58919;BME280;44704;50.122;19.932;2022-10-12T10:04:46;99436.13;;;12.40;69.18
58919;BME280;44704;50.122;19.932;2022-10-12T10:10:29;99431.42;;;12.58;69.29
58919;BME280;44704;50.122;19.932;2022-10-12T10:12:57;99429.14;;;12.73;68.29
58919;BME280;44704;50.122;19.932;2022-10-12T10:15:32;99424.82;;;12.84;67.46
58919;BME280;44704;50.122;19.932;2022-10-12T10:20:56;99416.83;;;13.02;65.30
58919;BME280;44704;50.122;19.932;2022-10-12T10:23:31;99416.30;;;13.13;65.62
58919;BME280;44704;50.122;19.932;2022-10-12T10:28:29;99418.09;;;13.35;64.63
58919;BME280;44704;50.122;19.932;2022-10-12T10:31:03;99420.38;;;13.39;64.14
58919;BME280;44704;50.122;19.932;2022-10-12T10:33:35;99419.89;;;13.50;63.56
58919;BME280;44704;50.122;19.932;2022-10-12T10:36:19;99418.90;;;13.62;63.39
58919;BME280;44704;50.122;19.932;2022-10-12T10:41:32;99412.68;;;13.82;63.28
58919;BME280;44704;50.122;19.932;2022-10-12T10:44:02;99409.88;;;13.91;62.83
58919;BME280;44704;50.122;19.932;2022-10-12T10:46:32;99412.20;;;14.02;62.63
58919;BME280;44704;50.122;19.932;2022-10-12T10:49:01;99412.20;;;14.12;61.49
58919;BME280;44704;50.122;19.932;2022-10-12T10:54:14;99406.77;;;14.25;61.12
58919;BME280;44704;50.122;19.932;2022-10-12T10:56:43;99402.98;;;14.33;59.70
58919;BME280;44704;50.122;19.932;2022-10-12T10:59:20;99404.34;;;14.38;59.27
58919;BME280;44704;50.122;19.932;2022-10-12T11:01:57;99400.14;;;14.46;58.68
58919;BME280;44704;50.122;19.932;2022-10-12T11:04:38;99396.45;;;14.51;57.67
58919;BME280;44704;50.122;19.932;2022-10-12T11:07:15;99396.45;;;14.57;57.31
58919;BME280;44704;50.122;19.932;2022-10-12T11:09:46;99397.38;;;14.65;57.62
58919;BME280;44704;50.122;19.932;2022-10-12T11:12:24;99402.20;;;14.72;57.29
58919;BME280;44704;50.122;19.932;2022-10-12T11:17:57;99398.29;;;14.88;56.76
58919;BME280;44704;50.122;19.932;2022-10-12T11:20:51;99392.05;;;14.96;56.93
58919;BME280;44704;50.122;19.932;2022-10-12T11:23:44;99396.08;;;15.05;56.70
58919;BME280;44704;50.122;19.932;2022-10-12T11:26:38;99397.38;;;15.10;56.15
58919;BME280;44704;50.122;19.932;2022-10-12T11:29:12;99391.52;;;15.15;56.15
58919;BME280;44704;50.122;19.932;2022-10-12T11:31:53;99390.60;;;15.20;56.09
58919;BME280;44704;50.122;19.932;2022-10-12T11:34:23;99390.70;;;15.27;55.85
58919;BME280;44704;50.122;19.932;2022-10-12T11:36:53;99389.80;;;15.34;56.20
58919;BME280;44704;50.122;19.932;2022-10-12T11:41:51;99383.95;;;15.35;55.02
58919;BME280;44704;50.122;19.932;2022-10-12T11:47:33;99380.91;;;15.39;54.26
58919;BME280;44704;50.122;19.932;2022-10-12T11:50:52;99378.55;;;15.43;54.63
58919;BME280;44704;50.122;19.932;2022-10-12T11:52:55;99372.06;;;15.46;55.02
58919;BME280;44704;50.122;19.932;2022-10-12T11:58:00;99370.33;;;15.56;54.81
58919;BME280;44704;50.122;19.932;2022-10-12T12:00:37;99363.63;;;15.61;54.02
58919;BME280;44704;50.122;19.932;2022-10-12T12:05:36;99365.52;;;15.67;53.75
58919;BME280;44704;50.122;19.932;2022-10-12T12:08:03;99364.98;;;15.69;53.26
58919;BME280;44704;50.122;19.932;2022-10-12T12:13:18;99365.89;;;15.70;53.12
58919;BME280;44704;50.122;19.932;2022-10-12T12:23:27;99357.09;;;15.60;52.92
58919;BME280;44704;50.122;19.932;2022-10-12T12:28:45;99352.14;;;15.68;52.74
58919;BME280;44704;50.122;19.932;2022-10-12T12:31:25;99353.17;;;15.67;52.56
58919;BME280;44704;50.122;19.932;2022-10-12T12:34:05;99357.54;;;15.70;52.26
58919;BME280;44704;50.122;19.932;2022-10-12T12:36:38;99356.42;;;15.70;51.55
58919;BME280;44704;50.122;19.932;2022-10-12T12:39:16;99358.58;;;15.70;51.87
58919;BME280;44704;50.122;19.932;2022-10-12T12:41:53;99356.03;;;15.72;51.86
58919;BME280;44704;50.122;19.932;2022-10-12T13:00:18;99342.37;;;15.91;50.53
58919;BME280;44704;50.122;19.932;2022-10-12T13:19:20;99328.27;;;16.09;50.33
58919;BME280;44704;50.122;19.932;2022-10-12T13:21:49;99326.72;;;16.14;50.00
58919;BME280;44704;50.122;19.932;2022-10-12T13:24:48;99328.27;;;16.16;49.77
58919;BME280;44704;50.122;19.932;2022-10-12T13:27:30;99330.30;;;16.20;49.96
58919;BME280;44704;50.122;19.932;2022-10-12T13:33:05;99326.65;;;16.23;50.00
58919;BME280;44704;50.122;19.932;2022-10-12T13:40:47;99328.11;;;16.27;49.06
58919;BME280;44704;50.122;19.932;2022-10-12T13:45:45;99320.05;;;16.24;49.27
58919;BME280;44704;50.122;19.932;2022-10-12T13:48:17;99319.16;;;16.22;48.83
58919;BME280;44704;50.122;19.932;2022-10-12T13:50:53;99317.93;;;16.21;49.07
58919;BME280;44704;50.122;19.932;2022-10-12T13:53:21;99316.53;;;16.18;49.10
58919;BME280;44704;50.122;19.932;2022-10-12T13:56:18;99314.48;;;16.17;49.53
58919;BME280;44704;50.122;19.932;2022-10-12T13:58:41;99310.29;;;16.14;49.10
58919;BME280;44704;50.122;19.932;2022-10-12T14:01:12;99311.90;;;16.10;49.43
58919;BME280;44704;50.122;19.932;2022-10-12T14:03:42;99313.98;;;16.09;49.57
58919;BME280;44704;50.122;19.932;2022-10-12T14:08:57;99311.47;;;16.06;49.75
58919;BME280;44704;50.122;19.932;2022-10-12T14:11:26;99309.41;;;16.03;49.61
58919;BME280;44704;50.122;19.932;2022-10-12T14:13:53;99305.55;;;15.96;49.27
58919;BME280;44704;50.122;19.932;2022-10-12T14:16:20;99307.31;;;15.90;49.21
58919;BME280;44704;50.122;19.932;2022-10-12T14:18:47;99311.05;;;15.81;49.15
58919;BME280;44704;50.122;19.932;2022-10-12T14:21:25;99308.70;;;15.76;49.43
58919;BME280;44704;50.122;19.932;2022-10-12T14:23:59;99307.70;;;15.72;49.48
58919;BME280;44704;50.122;19.932;2022-10-12T14:26:28;99307.77;;;15.64;49.46
58919;BME280;44704;50.122;19.932;2022-10-12T14:28:57;99308.87;;;15.55;49.28
58919;BME280;44704;50.122;19.932;2022-10-12T14:31:48;99307.58;;;15.48;49.74
58919;BME280;44704;50.122;19.932;2022-10-12T14:39:31;99300.15;;;15.20;50.34
58919;BME280;44704;50.122;19.932;2022-10-12T14:42:01;99293.75;;;15.09;50.80
58919;BME280;44704;50.122;19.932;2022-10-12T14:44:30;99296.75;;;14.99;51.19
58919;BME280;44704;50.122;19.932;2022-10-12T14:47:23;99300.01;;;14.88;51.62
58919;BME280;44704;50.122;19.932;2022-10-12T14:49:53;99298.52;;;14.76;52.08
58919;BME280;44704;50.122;19.932;2022-10-12T14:52:36;99296.90;;;14.64;52.34
58919;BME280;44704;50.122;19.932;2022-10-12T14:55:04;99292.46;;;14.51;52.68
58919;BME280;44704;50.122;19.932;2022-10-12T14:57:31;99293.88;;;14.39;53.21
58919;BME280;44704;50.122;19.932;2022-10-12T14:59:58;99293.17;;;14.27;53.44
58919;BME280;44704;50.122;19.932;2022-10-12T15:02:28;99290.73;;;14.15;53.63
58919;BME280;44704;50.122;19.932;2022-10-12T15:04:56;99293.33;;;14.04;54.79
58919;BME280;44704;50.122;19.932;2022-10-12T15:07:31;99294.06;;;13.96;55.16
58919;BME280;44704;50.122;19.932;2022-10-12T15:09:58;99294.04;;;13.83;55.18
58919;BME280;44704;50.122;19.932;2022-10-12T15:12:27;99296.35;;;13.68;55.46
58919;BME280;44704;50.122;19.932;2022-10-12T15:14:59;99294.77;;;13.54;56.01
58919;BME280;44704;50.122;19.932;2022-10-12T15:17:27;99294.54;;;13.40;56.36
58919;BME280;44704;50.122;19.932;2022-10-12T15:19:53;99294.68;;;13.27;56.76
58919;BME280;44704;50.122;19.932;2022-10-12T15:22:23;99299.02;;;13.14;57.15
58919;BME280;44704;50.122;19.932;2022-10-12T15:24:52;99304.58;;;13.03;57.52
58919;BME280;44704;50.122;19.932;2022-10-12T15:27:20;99305.21;;;12.90;58.22
58919;BME280;44704;50.122;19.932;2022-10-12T15:29:47;99308.46;;;12.77;58.67
58919;BME280;44704;50.122;19.932;2022-10-12T15:32:16;99309.41;;;12.63;58.98
58919;BME280;44704;50.122;19.932;2022-10-12T15:34:44;99306.68;;;12.49;59.13